sensor_id;sensor_type;location;lat;lon;timestamp;temperature;humidity
66271;DHT22;53063;39.614;8.814;2023-06-10T00:00:58;20.80;99.90
66271;DHT22;53063;39.614;8.814;2023-06-10T00:03:25;20.80;99.90
66271;DHT22;53063;39.614;8.814;2023-06-10T00:05:52;20.80;99.90
66271;DHT22;53063;39.614;8.814;2023-06-10T00:08:18;20.90;99.90
66271;DHT22;53063;39.614;8.814;2023-06-10T00:10:45;20.80;99.90
66271;DHT22;53063;39.614;8.814;2023-06-10T00:13:11;20.70;99.90
66271;DHT22;53063;39.614;8.814;2023-06-10T00:15:38;20.80;99.90
66271;DHT22;53063;39.614;8.814;2023-06-10T00:18:04;20.80;99.90
66271;DHT22;53063;39.614;8.814;2023-06-10T00:20:31;20.80;99.90
66271;DHT22;53063;39.614;8.814;2023-06-10T00:22:58;20.80;99.90
66271;DHT22;53063;39.614;8.814;2023-06-10T00:25:25;20.80;99.90
66271;DHT22;53063;39.614;8.814;2023-06-10T00:27:51;20.80;99.90
66271;DHT22;53063;39.614;8.814;2023-06-10T00:30:17;20.80;99.90
66271;DHT22;53063;39.614;8.814;2023-06-10T00:32:43;20.70;99.90
66271;DHT22;53063;39.614;8.814;2023-06-10T00:35:09;20.70;99.90
66271;DHT22;53063;39.614;8.814;2023-06-10T00:37:35;20.60;99.90
66271;DHT22;53063;39.614;8.814;2023-06-10T00:40:05;20.60;99.90
66271;DHT22;53063;39.614;8.814;2023-06-10T00:42:31;20.50;99.90
66271;DHT22;53063;39.614;8.814;2023-06-10T00:44:57;20.50;99.90
66271;DHT22;53063;39.614;8.814;2023-06-10T00:47:23;20.40;99.90
66271;DHT22;53063;39.614;8.814;2023-06-10T00:49:50;20.40;99.90
66271;DHT22;53063;39.614;8.814;2023-06-10T00:52:17;20.40;99.90
66271;DHT22;53063;39.614;8.814;2023-06-10T00:54:44;20.40;99.90
66271;DHT22;53063;39.614;8.814;2023-06-10T01:11:19;20.80;99.90
66271;DHT22;53063;39.614;8.814;2023-06-10T01:13:48;20.60;99.90
66271;DHT22;53063;39.614;8.814;2023-06-10T01:16:18;20.60;99.90
66271;DHT22;53063;39.614;8.814;2023-06-10T01:18:45;20.50;99.90
66271;DHT22;53063;39.614;8.814;2023-06-10T01:21:20;20.50;99.90
66271;DHT22;53063;39.614;8.814;2023-06-10T01:23:47;20.40;99.90
66271;DHT22;53063;39.614;8.814;2023-06-10T01:26:14;20.40;99.90
66271;DHT22;53063;39.614;8.814;2023-06-10T01:28:47;20.30;99.90
66271;DHT22;53063;39.614;8.814;2023-06-10T01:34:00;20.20;99.90
66271;DHT22;53063;39.614;8.814;2023-06-10T01:36:28;20.20;99.90
66271;DHT22;53063;39.614;8.814;2023-06-10T01:38:55;20.10;99.90
66271;DHT22;53063;39.614;8.814;2023-06-10T01:41:22;20.10;99.90
66271;DHT22;53063;39.614;8.814;2023-06-10T01:43:49;20.10;99.90
66271;DHT22;53063;39.614;8.814;2023-06-10T01:46:15;20.00;99.90
66271;DHT22;53063;39.614;8.814;2023-06-10T01:48:45;20.00;99.90
66271;DHT22;53063;39.614;8.814;2023-06-10T01:51:11;20.00;99.90
66271;DHT22;53063;39.614;8.814;2023-06-10T01:53:37;20.00;99.90
66271;DHT22;53063;39.614;8.814;2023-06-10T01:56:03;20.00;99.90
66271;DHT22;53063;39.614;8.814;2023-06-10T01:58:29;19.90;99.90
66271;DHT22;53063;39.614;8.814;2023-06-10T02:00:56;19.90;99.90
66271;DHT22;53063;39.614;8.814;2023-06-10T02:03:22;19.90;99.90
66271;DHT22;53063;39.614;8.814;2023-06-10T02:05:48;19.80;99.90
66271;DHT22;53063;39.614;8.814;2023-06-10T02:08:15;19.70;99.90
66271;DHT22;53063;39.614;8.814;2023-06-10T02:10:41;19.70;99.90
66271;DHT22;53063;39.614;8.814;2023-06-10T02:13:07;19.60;99.90
66271;DHT22;53063;39.614;8.814;2023-06-10T02:15:33;19.60;99.90
66271;DHT22;53063;39.614;8.814;2023-06-10T02:17:59;19.60;99.90
66271;DHT22;53063;39.614;8.814;2023-06-10T02:20:26;19.50;99.90
66271;DHT22;53063;39.614;8.814;2023-06-10T02:22:52;19.40;99.90
66271;DHT22;53063;39.614;8.814;2023-06-10T02:25:18;19.40;99.90
66271;DHT22;53063;39.614;8.814;2023-06-10T02:27:44;19.40;99.90
66271;DHT22;53063;39.614;8.814;2023-06-10T02:30:11;19.40;99.90
66271;DHT22;53063;39.614;8.814;2023-06-10T02:32:37;19.40;99.90
66271;DHT22;53063;39.614;8.814;2023-06-10T02:35:03;19.40;99.90
66271;DHT22;53063;39.614;8.814;2023-06-10T02:37:30;19.40;99.90
66271;DHT22;53063;39.614;8.814;2023-06-10T02:39:57;19.40;99.90
66271;DHT22;53063;39.614;8.814;2023-06-10T02:42:23;19.30;99.90
66271;DHT22;53063;39.614;8.814;2023-06-10T02:44:51;19.30;99.90
66271;DHT22;53063;39.614;8.814;2023-06-10T02:47:28;19.20;99.90
66271;DHT22;53063;39.614;8.814;2023-06-10T02:49:54;19.20;99.90
66271;DHT22;53063;39.614;8.814;2023-06-10T02:52:20;19.10;99.90
66271;DHT22;53063;39.614;8.814;2023-06-10T02:54:46;19.20;99.90
66271;DHT22;53063;39.614;8.814;2023-06-10T02:57:13;19.20;99.90
66271;DHT22;53063;39.614;8.814;2023-06-10T02:59:40;19.10;99.90
66271;DHT22;53063;39.614;8.814;2023-06-10T03:02:07;19.00;99.90
66271;DHT22;53063;39.614;8.814;2023-06-10T03:04:40;18.90;99.90
66271;DHT22;53063;39.614;8.814;2023-06-10T03:07:12;18.90;99.90
66271;DHT22;53063;39.614;8.814;2023-06-10T03:09:39;18.90;99.90
66271;DHT22;53063;39.614;8.814;2023-06-10T03:12:08;19.10;99.90
66271;DHT22;53063;39.614;8.814;2023-06-10T03:14:39;19.10;99.90
66271;DHT22;53063;39.614;8.814;2023-06-10T03:17:06;19.20;99.90
66271;DHT22;53063;39.614;8.814;2023-06-10T03:19:34;19.10;99.90
66271;DHT22;53063;39.614;8.814;2023-06-10T03:22:09;19.20;99.90
66271;DHT22;53063;39.614;8.814;2023-06-10T03:24:38;19.30;99.90
66271;DHT22;53063;39.614;8.814;2023-06-10T03:27:07;19.30;99.90
66271;DHT22;53063;39.614;8.814;2023-06-10T03:29:36;19.30;99.90
66271;DHT22;53063;39.614;8.814;2023-06-10T03:32:03;19.40;99.90
66271;DHT22;53063;39.614;8.814;2023-06-10T03:34:30;19.40;99.90
66271;DHT22;53063;39.614;8.814;2023-06-10T03:36:56;19.40;99.90
66271;DHT22;53063;39.614;8.814;2023-06-10T03:39:23;19.30;99.90
66271;DHT22;53063;39.614;8.814;2023-06-10T03:41:50;19.30;99.90
66271;DHT22;53063;39.614;8.814;2023-06-10T03:44:17;19.40;99.90
66271;DHT22;53063;39.614;8.814;2023-06-10T03:46:43;19.30;99.90
66271;DHT22;53063;39.614;8.814;2023-06-10T03:49:09;19.30;99.90
66271;DHT22;53063;39.614;8.814;2023-06-10T03:51:36;19.30;99.90
66271;DHT22;53063;39.614;8.814;2023-06-10T03:54:03;19.40;99.90
66271;DHT22;53063;39.614;8.814;2023-06-10T03:56:30;19.40;99.90
66271;DHT22;53063;39.614;8.814;2023-06-10T03:58:56;19.40;99.90
66271;DHT22;53063;39.614;8.814;2023-06-10T04:01:22;19.40;99.90
66271;DHT22;53063;39.614;8.814;2023-06-10T04:03:49;19.40;99.90
66271;DHT22;53063;39.614;8.814;2023-06-10T04:06:17;19.40;99.90
66271;DHT22;53063;39.614;8.814;2023-06-10T04:08:43;19.50;99.90
66271;DHT22;53063;39.614;8.814;2023-06-10T04:11:09;19.50;99.90
66271;DHT22;53063;39.614;8.814;2023-06-10T04:13:35;19.50;99.90
66271;DHT22;53063;39.614;8.814;2023-06-10T04:16:02;19.60;99.90
66271;DHT22;53063;39.614;8.814;2023-06-10T04:18:29;19.60;99.90
66271;DHT22;53063;39.614;8.814;2023-06-10T04:20:58;19.60;99.90
66271;DHT22;53063;39.614;8.814;2023-06-10T04:23:24;19.60;99.90
66271;DHT22;53063;39.614;8.814;2023-06-10T04:25:50;19.60;99.90
66271;DHT22;53063;39.614;8.814;2023-06-10T04:28:18;19.60;99.90
66271;DHT22;53063;39.614;8.814;2023-06-10T04:30:44;19.60;99.90
66271;DHT22;53063;39.614;8.814;2023-06-10T04:33:12;19.60;99.90
66271;DHT22;53063;39.614;8.814;2023-06-10T04:35:39;19.60;99.90
66271;DHT22;53063;39.614;8.814;2023-06-10T04:38:07;19.60;99.90
66271;DHT22;53063;39.614;8.814;2023-06-10T04:40:33;19.60;99.90
66271;DHT22;53063;39.614;8.814;2023-06-10T04:43:00;19.60;99.90
66271;DHT22;53063;39.614;8.814;2023-06-10T04:45:26;19.60;99.90
66271;DHT22;53063;39.614;8.814;2023-06-10T04:47:54;19.70;99.90
66271;DHT22;53063;39.614;8.814;2023-06-10T04:50:21;19.70;99.90
66271;DHT22;53063;39.614;8.814;2023-06-10T04:52:48;19.70;99.90
66271;DHT22;53063;39.614;8.814;2023-06-10T04:55:14;19.60;99.90
66271;DHT22;53063;39.614;8.814;2023-06-10T04:57:40;19.50;99.90
66271;DHT22;53063;39.614;8.814;2023-06-10T05:00:06;19.60;99.90
66271;DHT22;53063;39.614;8.814;2023-06-10T05:02:32;19.60;99.90
66271;DHT22;53063;39.614;8.814;2023-06-10T05:04:58;19.70;99.90
66271;DHT22;53063;39.614;8.814;2023-06-10T05:07:24;19.80;99.90
66271;DHT22;53063;39.614;8.814;2023-06-10T05:09:50;19.80;99.90
66271;DHT22;53063;39.614;8.814;2023-06-10T05:12:16;19.60;99.90
66271;DHT22;53063;39.614;8.814;2023-06-10T05:14:42;19.70;99.90
66271;DHT22;53063;39.614;8.814;2023-06-10T05:17:08;19.90;99.90
66271;DHT22;53063;39.614;8.814;2023-06-10T05:19:34;19.90;99.90
66271;DHT22;53063;39.614;8.814;2023-06-10T05:22:01;20.00;99.90
66271;DHT22;53063;39.614;8.814;2023-06-10T05:24:28;20.00;99.90
66271;DHT22;53063;39.614;8.814;2023-06-10T05:26:54;20.10;99.90
66271;DHT22;53063;39.614;8.814;2023-06-10T05:29:20;20.20;99.90
66271;DHT22;53063;39.614;8.814;2023-06-10T05:31:46;20.00;99.90
66271;DHT22;53063;39.614;8.814;2023-06-10T05:34:12;20.20;99.90
66271;DHT22;53063;39.614;8.814;2023-06-10T05:36:38;20.20;99.90
66271;DHT22;53063;39.614;8.814;2023-06-10T05:39:04;20.30;99.90
66271;DHT22;53063;39.614;8.814;2023-06-10T05:41:30;20.30;99.90
66271;DHT22;53063;39.614;8.814;2023-06-10T05:43:56;20.20;99.90
66271;DHT22;53063;39.614;8.814;2023-06-10T05:46:22;20.30;99.90
66271;DHT22;53063;39.614;8.814;2023-06-10T05:48:48;20.30;99.90
66271;DHT22;53063;39.614;8.814;2023-06-10T05:51:14;20.30;99.90
66271;DHT22;53063;39.614;8.814;2023-06-10T05:53:40;20.10;99.90
66271;DHT22;53063;39.614;8.814;2023-06-10T05:56:06;19.90;99.90
66271;DHT22;53063;39.614;8.814;2023-06-10T05:58:31;20.10;99.90
66271;DHT22;53063;39.614;8.814;2023-06-10T06:00:57;20.10;99.90
66271;DHT22;53063;39.614;8.814;2023-06-10T06:03:23;20.10;99.90
66271;DHT22;53063;39.614;8.814;2023-06-10T06:05:49;20.00;99.90
66271;DHT22;53063;39.614;8.814;2023-06-10T06:08:15;20.20;99.90
66271;DHT22;53063;39.614;8.814;2023-06-10T06:10:45;20.50;99.90
66271;DHT22;53063;39.614;8.814;2023-06-10T06:13:11;20.50;99.90
66271;DHT22;53063;39.614;8.814;2023-06-10T06:15:37;20.40;99.90
66271;DHT22;53063;39.614;8.814;2023-06-10T06:18:03;20.40;99.90
66271;DHT22;53063;39.614;8.814;2023-06-10T06:20:29;20.40;99.90
66271;DHT22;53063;39.614;8.814;2023-06-10T06:22:54;20.40;99.90
66271;DHT22;53063;39.614;8.814;2023-06-10T06:25:20;20.60;99.90
66271;DHT22;53063;39.614;8.814;2023-06-10T06:27:46;20.80;99.90
66271;DHT22;53063;39.614;8.814;2023-06-10T06:30:12;21.00;99.90
66271;DHT22;53063;39.614;8.814;2023-06-10T06:32:38;21.50;99.90
66271;DHT22;53063;39.614;8.814;2023-06-10T06:35:04;21.70;99.90
66271;DHT22;53063;39.614;8.814;2023-06-10T06:37:33;22.30;99.90
66271;DHT22;53063;39.614;8.814;2023-06-10T06:40:13;22.10;99.90
66271;DHT22;53063;39.614;8.814;2023-06-10T06:42:39;22.40;99.90
66271;DHT22;53063;39.614;8.814;2023-06-10T06:45:34;22.50;99.90
66271;DHT22;53063;39.614;8.814;2023-06-10T06:48:00;22.80;99.90
66271;DHT22;53063;39.614;8.814;2023-06-10T06:50:26;23.40;99.90
66271;DHT22;53063;39.614;8.814;2023-06-10T06:52:52;23.50;99.90
66271;DHT22;53063;39.614;8.814;2023-06-10T06:55:18;23.40;99.90
66271;DHT22;53063;39.614;8.814;2023-06-10T06:57:44;23.50;99.90
66271;DHT22;53063;39.614;8.814;2023-06-10T07:00:10;23.40;99.90
66271;DHT22;53063;39.614;8.814;2023-06-10T07:02:36;23.90;99.90
66271;DHT22;53063;39.614;8.814;2023-06-10T07:05:02;24.10;99.90
66271;DHT22;53063;39.614;8.814;2023-06-10T07:07:29;24.40;99.90
66271;DHT22;53063;39.614;8.814;2023-06-10T07:09:55;24.70;99.90
66271;DHT22;53063;39.614;8.814;2023-06-10T07:12:20;24.70;99.90
66271;DHT22;53063;39.614;8.814;2023-06-10T07:14:50;24.90;99.90
66271;DHT22;53063;39.614;8.814;2023-06-10T07:17:17;24.90;99.90
66271;DHT22;53063;39.614;8.814;2023-06-10T07:19:44;25.30;99.90
66271;DHT22;53063;39.614;8.814;2023-06-10T07:22:10;25.80;99.90
66271;DHT22;53063;39.614;8.814;2023-06-10T07:24:36;26.00;99.90
66271;DHT22;53063;39.614;8.814;2023-06-10T07:27:02;25.90;99.90
66271;DHT22;53063;39.614;8.814;2023-06-10T07:29:28;26.10;99.90
66271;DHT22;53063;39.614;8.814;2023-06-10T07:31:54;25.70;99.90
66271;DHT22;53063;39.614;8.814;2023-06-10T07:34:20;26.10;99.90
66271;DHT22;53063;39.614;8.814;2023-06-10T07:36:46;26.50;99.90
66271;DHT22;53063;39.614;8.814;2023-06-10T07:39:12;26.40;99.90
66271;DHT22;53063;39.614;8.814;2023-06-10T07:41:38;25.80;99.90
66271;DHT22;53063;39.614;8.814;2023-06-10T07:44:04;25.90;99.90
66271;DHT22;53063;39.614;8.814;2023-06-10T07:46:29;26.40;99.90
66271;DHT22;53063;39.614;8.814;2023-06-10T07:48:55;26.70;99.90
66271;DHT22;53063;39.614;8.814;2023-06-10T07:51:22;26.90;99.90
66271;DHT22;53063;39.614;8.814;2023-06-10T07:53:48;26.70;99.90
66271;DHT22;53063;39.614;8.814;2023-06-10T07:56:14;26.30;99.90
66271;DHT22;53063;39.614;8.814;2023-06-10T07:58:39;26.00;99.90
66271;DHT22;53063;39.614;8.814;2023-06-10T08:01:05;26.10;99.90
66271;DHT22;53063;39.614;8.814;2023-06-10T08:03:32;26.50;99.90
66271;DHT22;53063;39.614;8.814;2023-06-10T08:05:58;26.90;99.90
66271;DHT22;53063;39.614;8.814;2023-06-10T08:08:24;27.20;99.90
66271;DHT22;53063;39.614;8.814;2023-06-10T08:10:50;27.30;98.50
66271;DHT22;53063;39.614;8.814;2023-06-10T08:13:16;26.80;99.90
66271;DHT22;53063;39.614;8.814;2023-06-10T08:15:42;27.20;99.60
66271;DHT22;53063;39.614;8.814;2023-06-10T08:18:08;26.90;99.40
66271;DHT22;53063;39.614;8.814;2023-06-10T08:20:34;27.50;98.10
66271;DHT22;53063;39.614;8.814;2023-06-10T08:23:00;27.90;94.90
66271;DHT22;53063;39.614;8.814;2023-06-10T08:25:26;28.20;92.40
66271;DHT22;53063;39.614;8.814;2023-06-10T08:27:52;27.90;88.70
66271;DHT22;53063;39.614;8.814;2023-06-10T08:30:17;28.10;88.00
66271;DHT22;53063;39.614;8.814;2023-06-10T08:32:43;28.20;87.40
66271;DHT22;53063;39.614;8.814;2023-06-10T08:35:09;28.50;84.10
66271;DHT22;53063;39.614;8.814;2023-06-10T08:37:36;28.90;83.80
66271;DHT22;53063;39.614;8.814;2023-06-10T08:40:02;29.20;82.50
66271;DHT22;53063;39.614;8.814;2023-06-10T08:45:02;28.80;81.40
66271;DHT22;53063;39.614;8.814;2023-06-10T08:47:30;29.10;80.40
66271;DHT22;53063;39.614;8.814;2023-06-10T08:50:03;29.00;82.20
66271;DHT22;53063;39.614;8.814;2023-06-10T08:52:36;29.40;81.80
66271;DHT22;53063;39.614;8.814;2023-06-10T08:55:13;29.30;77.10
66271;DHT22;53063;39.614;8.814;2023-06-10T08:57:41;29.70;77.60
66271;DHT22;53063;39.614;8.814;2023-06-10T09:00:09;30.00;74.90
66271;DHT22;53063;39.614;8.814;2023-06-10T09:02:36;30.40;75.30
66271;DHT22;53063;39.614;8.814;2023-06-10T09:05:03;30.70;72.00
66271;DHT22;53063;39.614;8.814;2023-06-10T09:07:31;30.80;73.50
66271;DHT22;53063;39.614;8.814;2023-06-10T09:09:58;30.80;71.40
66271;DHT22;53063;39.614;8.814;2023-06-10T09:12:25;30.80;71.00
66271;DHT22;53063;39.614;8.814;2023-06-10T09:14:51;31.10;69.20
66271;DHT22;53063;39.614;8.814;2023-06-10T09:17:17;31.00;68.30
66271;DHT22;53063;39.614;8.814;2023-06-10T09:19:44;30.50;67.10
66271;DHT22;53063;39.614;8.814;2023-06-10T09:22:11;30.80;66.10
66271;DHT22;53063;39.614;8.814;2023-06-10T09:24:37;30.90;70.50
66271;DHT22;53063;39.614;8.814;2023-06-10T09:27:06;30.60;71.00
66271;DHT22;53063;39.614;8.814;2023-06-10T09:29:52;30.80;68.70
66271;DHT22;53063;39.614;8.814;2023-06-10T09:32:19;29.70;72.60
66271;DHT22;53063;39.614;8.814;2023-06-10T09:34:46;30.20;69.10
66271;DHT22;53063;39.614;8.814;2023-06-10T09:37:12;30.50;68.50
66271;DHT22;53063;39.614;8.814;2023-06-10T09:39:40;31.20;66.10
66271;DHT22;53063;39.614;8.814;2023-06-10T09:42:26;31.60;66.60
66271;DHT22;53063;39.614;8.814;2023-06-10T09:44:52;30.80;67.20
66271;DHT22;53063;39.614;8.814;2023-06-10T09:47:22;31.00;67.20
66271;DHT22;53063;39.614;8.814;2023-06-10T09:49:51;31.50;62.90
66271;DHT22;53063;39.614;8.814;2023-06-10T09:52:27;31.40;63.00
66271;DHT22;53063;39.614;8.814;2023-06-10T09:54:55;30.90;62.20
66271;DHT22;53063;39.614;8.814;2023-06-10T09:57:24;31.60;64.90
66271;DHT22;53063;39.614;8.814;2023-06-10T09:59:53;32.10;65.30
66271;DHT22;53063;39.614;8.814;2023-06-10T10:02:20;32.30;63.60
66271;DHT22;53063;39.614;8.814;2023-06-10T10:04:46;31.80;62.40
66271;DHT22;53063;39.614;8.814;2023-06-10T10:07:14;31.00;70.40
66271;DHT22;53063;39.614;8.814;2023-06-10T10:09:41;30.90;63.80
66271;DHT22;53063;39.614;8.814;2023-06-10T10:12:12;30.30;67.40
66271;DHT22;53063;39.614;8.814;2023-06-10T10:14:39;30.30;67.50
66271;DHT22;53063;39.614;8.814;2023-06-10T10:17:10;31.20;64.90
66271;DHT22;53063;39.614;8.814;2023-06-10T10:20:03;31.30;62.30
66271;DHT22;53063;39.614;8.814;2023-06-10T10:22:38;32.00;60.80
66271;DHT22;53063;39.614;8.814;2023-06-10T10:25:11;32.50;58.80
66271;DHT22;53063;39.614;8.814;2023-06-10T10:27:48;32.30;62.20
66271;DHT22;53063;39.614;8.814;2023-06-10T10:30:17;31.90;61.90
66271;DHT22;53063;39.614;8.814;2023-06-10T10:33:04;32.30;60.40
66271;DHT22;53063;39.614;8.814;2023-06-10T10:35:32;32.80;58.30
66271;DHT22;53063;39.614;8.814;2023-06-10T10:37:58;32.80;58.10
66271;DHT22;53063;39.614;8.814;2023-06-10T10:40:25;32.40;55.30
66271;DHT22;53063;39.614;8.814;2023-06-10T10:42:52;32.20;57.50
66271;DHT22;53063;39.614;8.814;2023-06-10T10:45:19;32.60;58.40
66271;DHT22;53063;39.614;8.814;2023-06-10T10:47:52;32.60;58.20
66271;DHT22;53063;39.614;8.814;2023-06-10T10:50:20;31.40;60.60
66271;DHT22;53063;39.614;8.814;2023-06-10T10:53:00;32.10;59.90
66271;DHT22;53063;39.614;8.814;2023-06-10T10:55:28;31.90;59.70
66271;DHT22;53063;39.614;8.814;2023-06-10T10:58:06;32.40;58.60
66271;DHT22;53063;39.614;8.814;2023-06-10T11:00:34;32.70;55.80
66271;DHT22;53063;39.614;8.814;2023-06-10T11:05:44;33.10;56.50
66271;DHT22;53063;39.614;8.814;2023-06-10T11:08:14;32.30;55.30
66271;DHT22;53063;39.614;8.814;2023-06-10T11:10:41;32.30;55.30
66271;DHT22;53063;39.614;8.814;2023-06-10T11:13:19;32.10;57.50
66271;DHT22;53063;39.614;8.814;2023-06-10T11:15:47;32.90;59.00
66271;DHT22;53063;39.614;8.814;2023-06-10T11:18:26;33.70;57.40
66271;DHT22;53063;39.614;8.814;2023-06-10T11:20:58;34.00;55.60
66271;DHT22;53063;39.614;8.814;2023-06-10T11:31:28;33.40;55.50
66271;DHT22;53063;39.614;8.814;2023-06-10T11:33:56;33.50;54.70
66271;DHT22;53063;39.614;8.814;2023-06-10T11:36:23;33.90;54.30
66271;DHT22;53063;39.614;8.814;2023-06-10T11:38:57;33.90;53.40
66271;DHT22;53063;39.614;8.814;2023-06-10T11:41:28;34.20;52.00
66271;DHT22;53063;39.614;8.814;2023-06-10T11:43:57;34.20;52.70
66271;DHT22;53063;39.614;8.814;2023-06-10T11:46:26;33.70;51.80
66271;DHT22;53063;39.614;8.814;2023-06-10T11:48:55;33.70;53.10
66271;DHT22;53063;39.614;8.814;2023-06-10T11:51:21;33.60;53.50
66271;DHT22;53063;39.614;8.814;2023-06-10T11:53:50;33.50;54.00
66271;DHT22;53063;39.614;8.814;2023-06-10T11:56:34;32.80;54.10
66271;DHT22;53063;39.614;8.814;2023-06-10T12:01:31;33.80;53.50
66271;DHT22;53063;39.614;8.814;2023-06-10T12:06:41;32.90;54.40
66271;DHT22;53063;39.614;8.814;2023-06-10T12:09:16;32.50;55.80
66271;DHT22;53063;39.614;8.814;2023-06-10T12:11:43;32.00;57.60
66271;DHT22;53063;39.614;8.814;2023-06-10T12:14:09;32.00;57.90
66271;DHT22;53063;39.614;8.814;2023-06-10T12:16:35;31.80;58.20
66271;DHT22;53063;39.614;8.814;2023-06-10T12:19:03;31.70;57.60
66271;DHT22;53063;39.614;8.814;2023-06-10T12:21:31;32.20;58.10
66271;DHT22;53063;39.614;8.814;2023-06-10T12:24:05;32.80;57.80
66271;DHT22;53063;39.614;8.814;2023-06-10T12:26:40;33.30;56.10
66271;DHT22;53063;39.614;8.814;2023-06-10T12:29:32;33.10;56.30
66271;DHT22;53063;39.614;8.814;2023-06-10T12:32:03;32.80;57.50
66271;DHT22;53063;39.614;8.814;2023-06-10T12:34:38;32.80;56.00
66271;DHT22;53063;39.614;8.814;2023-06-10T12:37:09;32.90;56.00
66271;DHT22;53063;39.614;8.814;2023-06-10T12:39:40;33.00;55.30
66271;DHT22;53063;39.614;8.814;2023-06-10T12:42:09;33.00;56.00
66271;DHT22;53063;39.614;8.814;2023-06-10T12:44:39;32.90;56.20
66271;DHT22;53063;39.614;8.814;2023-06-10T12:47:10;33.00;55.00
66271;DHT22;53063;39.614;8.814;2023-06-10T12:49:40;33.10;55.90
66271;DHT22;53063;39.614;8.814;2023-06-10T12:52:06;33.30;54.70
66271;DHT22;53063;39.614;8.814;2023-06-10T12:54:33;33.10;55.10
66271;DHT22;53063;39.614;8.814;2023-06-10T12:57:00;32.70;55.10
66271;DHT22;53063;39.614;8.814;2023-06-10T12:59:27;32.20;56.80
66271;DHT22;53063;39.614;8.814;2023-06-10T13:01:54;31.90;57.70
66271;DHT22;53063;39.614;8.814;2023-06-10T13:04:20;31.70;58.00
66271;DHT22;53063;39.614;8.814;2023-06-10T13:06:48;31.20;58.20
66271;DHT22;53063;39.614;8.814;2023-06-10T13:09:15;30.90;60.30
66271;DHT22;53063;39.614;8.814;2023-06-10T13:11:42;31.00;60.00
66271;DHT22;53063;39.614;8.814;2023-06-10T13:14:10;31.00;60.20
66271;DHT22;53063;39.614;8.814;2023-06-10T13:16:36;31.30;59.40
66271;DHT22;53063;39.614;8.814;2023-06-10T13:19:04;31.40;59.70
66271;DHT22;53063;39.614;8.814;2023-06-10T13:21:32;31.40;60.60
66271;DHT22;53063;39.614;8.814;2023-06-10T13:23:59;31.50;60.10
66271;DHT22;53063;39.614;8.814;2023-06-10T13:26:25;31.40;60.70
66271;DHT22;53063;39.614;8.814;2023-06-10T13:28:51;31.60;59.80
66271;DHT22;53063;39.614;8.814;2023-06-10T13:31:18;31.80;59.60
66271;DHT22;53063;39.614;8.814;2023-06-10T13:33:46;31.60;60.00
66271;DHT22;53063;39.614;8.814;2023-06-10T13:36:13;31.50;59.10
66271;DHT22;53063;39.614;8.814;2023-06-10T13:38:39;31.00;59.70
66271;DHT22;53063;39.614;8.814;2023-06-10T13:41:08;30.50;60.00
66271;DHT22;53063;39.614;8.814;2023-06-10T13:43:36;30.10;61.40
66271;DHT22;53063;39.614;8.814;2023-06-10T13:46:11;29.90;62.50
66271;DHT22;53063;39.614;8.814;2023-06-10T13:48:41;30.00;63.70
66271;DHT22;53063;39.614;8.814;2023-06-10T13:51:10;30.50;63.80
66271;DHT22;53063;39.614;8.814;2023-06-10T13:53:40;30.40;62.80
66271;DHT22;53063;39.614;8.814;2023-06-10T13:56:06;30.10;62.90
66271;DHT22;53063;39.614;8.814;2023-06-10T13:58:33;30.00;64.30
66271;DHT22;53063;39.614;8.814;2023-06-10T14:01:05;30.10;63.40
66271;DHT22;53063;39.614;8.814;2023-06-10T14:03:31;29.90;63.60
66271;DHT22;53063;39.614;8.814;2023-06-10T14:05:58;29.90;64.50
66271;DHT22;53063;39.614;8.814;2023-06-10T14:08:24;30.10;63.80
66271;DHT22;53063;39.614;8.814;2023-06-10T14:10:50;29.70;64.10
66271;DHT22;53063;39.614;8.814;2023-06-10T14:13:17;29.70;63.40
66271;DHT22;53063;39.614;8.814;2023-06-10T14:15:44;29.40;64.40
66271;DHT22;53063;39.614;8.814;2023-06-10T14:18:11;29.50;64.90
66271;DHT22;53063;39.614;8.814;2023-06-10T14:20:37;29.70;64.90
66271;DHT22;53063;39.614;8.814;2023-06-10T14:23:03;29.80;64.40
66271;DHT22;53063;39.614;8.814;2023-06-10T14:25:30;29.60;64.00
66271;DHT22;53063;39.614;8.814;2023-06-10T14:27:56;29.50;64.40
66271;DHT22;53063;39.614;8.814;2023-06-10T14:30:23;29.30;65.50
66271;DHT22;53063;39.614;8.814;2023-06-10T14:32:51;29.50;66.90
66271;DHT22;53063;39.614;8.814;2023-06-10T14:35:18;29.70;67.40
66271;DHT22;53063;39.614;8.814;2023-06-10T14:37:44;29.70;65.80
66271;DHT22;53063;39.614;8.814;2023-06-10T14:40:11;29.60;65.40
66271;DHT22;53063;39.614;8.814;2023-06-10T14:42:37;29.40;66.50
66271;DHT22;53063;39.614;8.814;2023-06-10T14:45:04;29.50;66.50
66271;DHT22;53063;39.614;8.814;2023-06-10T14:47:31;29.30;66.20
66271;DHT22;53063;39.614;8.814;2023-06-10T14:49:57;29.20;65.60
66271;DHT22;53063;39.614;8.814;2023-06-10T14:52:24;29.00;66.50
66271;DHT22;53063;39.614;8.814;2023-06-10T14:54:53;29.10;67.10
66271;DHT22;53063;39.614;8.814;2023-06-10T14:57:19;29.00;66.50
66271;DHT22;53063;39.614;8.814;2023-06-10T14:59:45;29.10;67.20
66271;DHT22;53063;39.614;8.814;2023-06-10T15:02:12;29.00;66.60
66271;DHT22;53063;39.614;8.814;2023-06-10T15:04:38;29.00;65.70
66271;DHT22;53063;39.614;8.814;2023-06-10T15:07:04;28.80;67.80
66271;DHT22;53063;39.614;8.814;2023-06-10T15:09:31;28.90;67.30
66271;DHT22;53063;39.614;8.814;2023-06-10T15:11:58;28.80;67.70
66271;DHT22;53063;39.614;8.814;2023-06-10T15:14:25;28.80;67.80
66271;DHT22;53063;39.614;8.814;2023-06-10T15:16:52;28.80;67.50
66271;DHT22;53063;39.614;8.814;2023-06-10T15:19:18;28.80;67.90
66271;DHT22;53063;39.614;8.814;2023-06-10T15:21:45;28.80;67.40
66271;DHT22;53063;39.614;8.814;2023-06-10T15:24:11;28.50;68.30
66271;DHT22;53063;39.614;8.814;2023-06-10T15:26:41;28.70;68.00
66271;DHT22;53063;39.614;8.814;2023-06-10T15:29:11;28.50;68.10
66271;DHT22;53063;39.614;8.814;2023-06-10T15:31:38;28.50;69.50
66271;DHT22;53063;39.614;8.814;2023-06-10T15:34:04;28.60;68.70
66271;DHT22;53063;39.614;8.814;2023-06-10T15:36:35;28.50;68.70
66271;DHT22;53063;39.614;8.814;2023-06-10T15:39:04;28.40;68.60
66271;DHT22;53063;39.614;8.814;2023-06-10T15:41:33;28.30;69.60
66271;DHT22;53063;39.614;8.814;2023-06-10T15:43:59;28.20;71.00
66271;DHT22;53063;39.614;8.814;2023-06-10T15:46:29;28.10;70.20
66271;DHT22;53063;39.614;8.814;2023-06-10T15:48:56;27.80;71.30
66271;DHT22;53063;39.614;8.814;2023-06-10T15:51:22;27.50;72.40
66271;DHT22;53063;39.614;8.814;2023-06-10T15:53:48;27.40;73.10
66271;DHT22;53063;39.614;8.814;2023-06-10T15:56:15;27.40;73.80
66271;DHT22;53063;39.614;8.814;2023-06-10T15:58:41;27.10;75.70
66271;DHT22;53063;39.614;8.814;2023-06-10T16:01:07;27.10;76.50
66271;DHT22;53063;39.614;8.814;2023-06-10T16:03:35;26.90;78.10
66271;DHT22;53063;39.614;8.814;2023-06-10T16:06:01;27.00;79.00
66271;DHT22;53063;39.614;8.814;2023-06-10T16:08:27;26.90;79.40